Time;durP1;ratioP1;P1;durP2;ratioP2;P2;SDS_P1;SDS_P2;PMS_P1;PMS_P2;Temp;Humidity;BMP_temperature;BMP_pressure;BME280_temperature;BME280_humidity;BME280_pressure;Samples;Min_cycle;Max_cycle;Signal;HPM_P1;HPM_P2
2021/01/14 00:00:33;;;;;;;2.07;1.67;;;;;;;3.90;56.24;100902.47;6134051;28;20240;-68
2021/01/14 00:03:54;;;;;;;4.43;2.57;;;;;;;4.02;56.08;100900.13;6119169;28;20243;-67
2021/01/14 00:07:14;;;;;;;3.57;1.73;;;;;;;3.64;56.88;100918.25;6118166;28;20319;-68
2021/01/14 00:10:36;;;;;;;4.17;2.10;;;;;;;3.99;56.95;100906.91;6119863;28;20232;-68
2021/01/14 00:13:56;;;;;;;5.20;2.27;;;;;;;3.92;57.99;100927.41;6118362;28;20235;-67
2021/01/14 00:17:18;;;;;;;2.17;1.40;;;;;;;3.92;57.83;100931.72;6119522;28;20244;-68
2021/01/14 00:20:39;;;;;;;9.70;2.47;;;;;;;3.90;57.89;100944.56;6118788;28;20251;-67
2021/01/14 00:23:59;;;;;;;4.80;2.37;;;;;;;3.54;60.29;100949.78;6120793;28;20251;-68
2021/01/14 00:27:20;;;;;;;2.80;1.70;;;;;;;3.80;59.67;100952.06;6120629;28;20609;-67
2021/01/14 00:30:40;;;;;;;4.73;2.80;;;;;;;3.91;59.66;100958.31;6117689;28;20236;-68
2021/01/14 00:34:01;;;;;;;5.43;2.03;;;;;;;3.71;61.57;100971.63;6119618;28;20256;-68
2021/01/14 00:40:59;;;;;;;3.03;2.17;;;;;;;3.91;61.92;100981.50;6120544;28;20279;-67
2021/01/14 00:44:20;;;;;;;5.00;2.63;;;;;;;3.90;62.23;100990.06;6119446;28;20610;-68
2021/01/14 00:47:41;;;;;;;3.67;2.43;;;;;;;4.03;61.36;100992.06;6120447;28;20228;-67
2021/01/14 00:51:02;;;;;;;5.97;2.83;;;;;;;3.84;62.37;101008.84;6120228;28;20322;-68
2021/01/14 00:54:22;;;;;;;6.60;2.83;;;;;;;3.85;62.30;101014.88;6119087;28;20231;-68
2021/01/14 00:57:43;;;;;;;5.77;2.67;;;;;;;3.98;62.21;101021.16;6120370;28;20510;-68
2021/01/14 01:01:04;;;;;;;4.67;2.70;;;;;;;4.07;62.37;101021.31;6118518;28;20322;-68
2021/01/14 01:04:24;;;;;;;5.17;2.73;;;;;;;4.13;62.55;101042.09;6116437;28;20326;-67
2021/01/14 01:07:50;;;;;;;3.57;2.50;;;;;;;4.07;62.34;101048.00;6117662;28;20326;-66
2021/01/14 01:11:11;;;;;;;6.13;3.30;;;;;;;3.95;63.34;101058.03;6119548;28;20327;-68
2021/01/14 01:14:31;;;;;;;3.57;2.30;;;;;;;4.07;63.23;101066.03;6119927;28;20310;-68
2021/01/14 01:17:52;;;;;;;4.97;3.10;;;;;;;3.97;63.69;101074.38;6102306;28;20227;-67
2021/01/14 01:21:12;;;;;;;3.90;2.80;;;;;;;3.81;64.76;101072.31;6117204;28;20244;-68
2021/01/14 01:24:33;;;;;;;3.70;2.70;;;;;;;4.09;63.35;101079.81;6119728;28;20559;-67
2021/01/14 01:27:56;;;;;;;3.87;2.70;;;;;;;4.05;63.63;101097.75;6117575;28;20247;-66
2021/01/14 01:31:16;;;;;;;3.57;2.50;;;;;;;4.21;63.24;101096.41;6117995;28;20236;-67
2021/01/14 01:34:37;;;;;;;6.60;2.70;;;;;;;4.22;62.87;101098.13;6119420;28;20227;-68
2021/01/14 01:37:57;;;;;;;3.77;3.47;;;;;;;4.02;64.58;101114.03;6119197;28;20791;-67
2021/01/14 01:41:19;;;;;;;2.60;2.40;;;;;;;4.18;63.53;101122.97;6116665;28;20232;-68
2021/01/14 01:44:39;;;;;;;3.47;2.50;;;;;;;4.22;63.41;101129.06;6118917;28;20259;-67
2021/01/14 01:48:00;;;;;;;4.97;2.43;;;;;;;4.24;63.07;101137.69;6117930;28;20247;-68
2021/01/14 01:51:21;;;;;;;2.60;2.33;;;;;;;4.14;63.67;101140.06;6116131;28;20709;-68
2021/01/14 01:54:42;;;;;;;3.40;2.87;;;;;;;4.17;64.14;101154.75;6118661;28;20240;-68
2021/01/14 01:58:04;;;;;;;2.47;2.23;;;;;;;4.17;64.26;101157.31;6119633;28;20318;-67
2021/01/14 02:01:25;;;;;;;4.10;2.47;;;;;;;4.31;64.10;101171.38;6118882;28;20239;-68
2021/01/14 02:04:46;;;;;;;2.80;2.50;;;;;;;4.44;63.23;101180.28;6117393;28;20231;-67
2021/01/14 02:08:18;;;;;;;3.73;2.80;;;;;;;4.63;62.51;101185.81;6118480;28;20343;-67
2021/01/14 02:11:41;;;;;;;4.30;3.43;;;;;;;4.48;63.26;101197.56;6117725;28;20245;-67
2021/01/14 02:15:03;;;;;;;3.53;2.23;;;;;;;4.53;62.61;101195.94;6117477;28;20248;-68
2021/01/14 02:18:24;;;;;;;2.07;1.87;;;;;;;4.43;63.43;101209.47;6119785;28;20531;-67
2021/01/14 02:21:48;;;;;;;2.37;2.10;;;;;;;4.42;63.66;101218.06;6149345;28;20246;-67
2021/01/14 02:25:13;;;;;;;3.07;2.20;;;;;;;4.44;63.24;101225.81;6120959;28;20228;-68
2021/01/14 02:28:36;;;;;;;2.97;2.67;;;;;;;4.44;63.75;101230.97;6124554;28;20243;-67
2021/01/14 02:31:56;;;;;;;3.23;2.63;;;;;;;4.62;63.35;101236.53;6133408;28;20269;-67
2021/01/14 02:35:16;;;;;;;2.87;2.57;;;;;;;4.45;63.46;101243.03;6123745;28;20236;-68
2021/01/14 02:38:38;;;;;;;2.30;1.90;;;;;;;4.54;63.23;101253.56;6123766;28;20223;-67
2021/01/14 02:41:58;;;;;;;1.73;1.63;;;;;;;4.45;63.99;101263.66;6121406;28;20256;-67
2021/01/14 02:45:19;;;;;;;1.93;1.83;;;;;;;4.63;63.12;101273.53;6121905;28;20228;-66
2021/01/14 02:48:45;;;;;;;5.47;3.30;;;;;;;4.62;63.19;101274.38;6122058;28;20255;-67
2021/01/14 02:52:07;;;;;;;2.50;2.30;;;;;;;4.70;62.81;101283.16;6122870;28;20323;-67
2021/01/14 02:55:28;;;;;;;3.53;2.23;;;;;;;4.65;62.95;101295.06;6121049;28;20240;-67
2021/01/14 02:58:48;;;;;;;2.47;2.23;;;;;;;4.77;62.92;101297.06;6121855;28;20243;-68
2021/01/14 03:02:09;;;;;;;3.83;3.00;;;;;;;4.76;62.85;101311.66;6120949;28;20243;-67
2021/01/14 03:05:30;;;;;;;3.53;3.20;;;;;;;4.41;64.42;101314.31;6121249;28;20625;-67
2021/01/14 03:08:51;;;;;;;2.37;2.17;;;;;;;4.52;63.46;101319.72;6123549;28;20634;-67
2021/01/14 03:12:11;;;;;;;4.13;3.50;;;;;;;4.53;63.54;101319.75;6120410;28;20244;-67
2021/01/14 03:15:32;;;;;;;2.60;2.40;;;;;;;4.41;63.57;101334.94;6122921;28;20267;-67
2021/01/14 03:18:53;;;;;;;2.90;2.57;;;;;;;4.42;63.89;101336.69;6120817;28;20749;-67
2021/01/14 03:22:13;;;;;;;5.17;2.60;;;;;;;4.50;63.88;101345.47;6121100;28;20239;-67
2021/01/14 03:25:34;;;;;;;3.47;2.90;;;;;;;4.46;64.03;101350.50;6121463;28;20228;-67
2021/01/14 03:28:54;;;;;;;8.20;3.90;;;;;;;4.68;63.14;101354.50;6121305;28;20614;-67
2021/01/14 03:32:15;;;;;;;5.27;2.83;;;;;;;4.80;62.81;101370.25;6119599;28;20220;-67
2021/01/14 03:35:36;;;;;;;2.83;2.50;;;;;;;4.73;63.34;101370.97;6137305;28;20255;-67
2021/01/14 03:38:57;;;;;;;3.30;3.00;;;;;;;4.85;62.64;101363.50;6121670;28;20236;-67
2021/01/14 03:42:19;;;;;;;5.50;3.30;;;;;;;4.79;62.83;101373.69;6114934;28;20257;-67
2021/01/14 03:45:40;;;;;;;4.43;3.33;;;;;;;4.88;62.72;101383.34;6113657;28;20244;-66
2021/01/14 03:49:00;;;;;;;4.50;3.47;;;;;;;5.01;61.85;101394.81;6121208;28;20236;-67
2021/01/14 03:52:22;;;;;;;4.73;3.10;;;;;;;5.13;61.79;101398.53;6120139;28;20586;-67
2021/01/14 03:55:42;;;;;;;3.43;2.77;;;;;;;5.24;60.86;101401.38;6120109;28;20240;-67
2021/01/14 03:59:03;;;;;;;5.67;2.87;;;;;;;5.21;61.38;101406.47;6117729;28;20231;-68
2021/01/14 04:02:23;;;;;;;4.13;3.70;;;;;;;4.93;62.28;101408.41;6132116;28;23204;-67
2021/01/14 04:05:44;;;;;;;5.07;3.67;;;;;;;4.96;62.52;101412.78;6121027;28;20240;-67
2021/01/14 04:09:06;;;;;;;5.07;3.83;;;;;;;4.97;62.45;101424.00;6118397;28;20228;-67
2021/01/14 04:12:27;;;;;;;5.63;3.93;;;;;;;4.92;62.57;101429.91;6133133;28;20232;-67
2021/01/14 04:15:48;;;;;;;5.53;4.43;;;;;;;4.95;62.09;101439.44;6118460;28;20243;-67
2021/01/14 04:19:09;;;;;;;5.67;3.30;;;;;;;4.96;62.09;101437.72;6122120;28;20240;-67
2021/01/14 04:22:30;;;;;;;7.00;4.80;;;;;;;4.96;62.22;101442.88;6119655;28;20232;-68
2021/01/14 04:25:51;;;;;;;4.90;4.13;;;;;;;5.11;61.63;101440.66;6131459;28;20232;-67
2021/01/14 04:29:11;;;;;;;7.97;4.50;;;;;;;4.97;62.06;101447.22;6120239;28;20330;-68
2021/01/14 04:32:32;;;;;;;5.67;4.67;;;;;;;5.15;61.32;101460.56;6115339;28;20236;-68
2021/01/14 04:35:54;;;;;;;5.20;4.70;;;;;;;4.92;61.56;101458.31;6122045;28;20224;-67
2021/01/14 04:39:15;;;;;;;9.57;6.00;;;;;;;4.92;61.80;101463.47;6119869;28;20904;-67
2021/01/14 04:42:45;;;;;;;7.50;4.87;;;;;;;5.00;61.66;101467.94;6131708;28;20590;-66
2021/01/14 04:46:07;;;;;;;8.07;4.73;;;;;;;4.98;61.42;101474.78;6105680;28;20295;-67
2021/01/14 04:49:28;;;;;;;4.83;4.33;;;;;;;5.01;61.93;101482.59;6120671;28;20318;-68
2021/01/14 04:52:51;;;;;;;6.53;4.93;;;;;;;5.06;61.90;101488.72;6115482;28;20570;-67
2021/01/14 04:56:13;;;;;;;7.37;4.87;;;;;;;5.14;60.97;101492.38;6118903;28;20243;-68
2021/01/14 04:59:37;;;;;;;10.87;6.13;;;;;;;5.17;61.22;101505.34;6120893;28;20236;-67
2021/01/14 05:03:05;;;;;;;10.27;5.53;;;;;;;5.04;61.97;101508.47;6117818;28;20363;-67
2021/01/14 05:06:26;;;;;;;5.90;4.53;;;;;;;5.16;61.14;101513.06;6119197;28;20629;-67
2021/01/14 05:09:47;;;;;;;6.77;4.97;;;;;;;5.17;60.94;101526.00;6121315;28;20323;-67
2021/01/14 05:13:09;;;;;;;7.13;5.23;;;;;;;4.81;62.06;101534.59;6118133;28;20327;-68
2021/01/14 05:16:30;;;;;;;7.40;5.03;;;;;;;5.03;62.10;101533.41;6118926;28;20232;-68
2021/01/14 05:19:53;;;;;;;7.13;4.97;;;;;;;4.89;62.16;101535.66;6114213;28;20231;-67
2021/01/14 05:23:14;;;;;;;6.33;4.57;;;;;;;4.98;61.75;101539.31;6117858;28;20239;-68
2021/01/14 05:26:35;;;;;;;6.97;5.13;;;;;;;4.90;61.69;101547.75;6120109;28;20239;-67
2021/01/14 05:30:02;;;;;;;6.87;6.07;;;;;;;4.85;62.38;101549.31;6120567;28;20227;-67
2021/01/14 05:33:24;;;;;;;21.87;18.57;;;;;;;4.99;61.69;101551.38;6118976;28;20244;-67
2021/01/14 05:37:03;;;;;;;22.00;17.97;;;;;;;5.19;61.32;101557.03;6118392;28;20231;-67
2021/01/14 05:40:24;;;;;;;8.53;6.93;;;;;;;5.20;61.25;101554.50;6113292;28;20227;-67
2021/01/14 05:43:53;;;;;;;9.73;5.53;;;;;;;5.38;60.53;101566.13;6117236;28;20236;-67
2021/01/14 05:47:21;;;;;;;7.00;5.23;;;;;;;5.33;60.57;101564.31;6116856;28;20318;-67
2021/01/14 05:50:44;;;;;;;8.63;5.30;;;;;;;5.36;59.95;101570.38;6118057;28;20281;-67
2021/01/14 05:54:07;;;;;;;10.23;5.57;;;;;;;5.28;60.52;101575.34;6120356;28;20223;-67
2021/01/14 05:57:29;;;;;;;8.43;5.60;;;;;;;5.39;60.22;101573.03;6121564;28;20250;-67
2021/01/14 06:00:50;;;;;;;8.47;5.83;;;;;;;5.51;59.92;101581.09;6119455;28;20228;-67
2021/01/14 06:04:15;;;;;;;7.77;4.90;;;;;;;5.50;59.51;101585.34;6113571;28;20231;-67
2021/01/14 06:07:40;;;;;;;8.97;5.60;;;;;;;5.54;59.21;101596.66;6122932;28;20429;-67
2021/01/14 06:11:01;;;;;;;6.33;5.30;;;;;;;5.45;59.40;101610.22;6123684;28;20224;-68
2021/01/14 06:14:30;;;;;;;6.83;6.13;;;;;;;5.42;59.74;101611.84;6121349;28;20224;-68
2021/01/14 06:17:51;;;;;;;9.77;5.07;;;;;;;5.50;59.18;101618.09;6117219;28;20318;-67
2021/01/14 06:21:11;;;;;;;8.67;5.33;;;;;;;5.47;59.38;101623.19;6121988;28;20232;-67
2021/01/14 06:24:36;;;;;;;7.07;5.63;;;;;;;5.57;58.97;101629.47;6123700;28;20239;-67
2021/01/14 06:27:56;;;;;;;6.43;4.97;;;;;;;5.49;58.76;101629.28;6122767;28;20243;-67
2021/01/14 06:31:16;;;;;;;9.53;5.77;;;;;;;5.52;59.14;101637.97;6121405;28;20224;-67
2021/01/14 06:34:39;;;;;;;10.53;6.17;;;;;;;5.50;58.70;101649.09;6121855;28;20224;-67
2021/01/14 06:38:04;;;;;;;9.37;5.23;;;;;;;5.56;58.79;101641.47;6122959;28;20239;-67
2021/01/14 06:41:35;;;;;;;7.40;5.40;;;;;;;5.59;58.52;101649.31;6116789;28;20232;-67
2021/01/14 06:44:58;;;;;;;9.50;5.50;;;;;;;5.62;58.18;101656.25;6116894;28;20243;-67
2021/01/14 06:48:28;;;;;;;8.13;5.50;;;;;;;5.64;58.37;101657.19;6131444;28;20235;-66
2021/01/14 06:51:57;;;;;;;6.40;4.80;;;;;;;5.49;58.41;101668.88;6119045;28;20228;-66
2021/01/14 06:55:19;;;;;;;11.37;5.90;;;;;;;5.52;58.03;101671.56;6124351;28;20228;-67
2021/01/14 06:58:47;;;;;;;7.43;5.40;;;;;;;5.51;57.97;101674.09;6122256;28;20232;-67
2021/01/14 07:02:51;;;;;;;5.83;5.27;;;;;;;5.56;58.19;101677.66;6116376;28;20232;-66
2021/01/14 07:06:21;;;;;;;8.67;5.13;;;;;;;5.49;57.73;101684.38;6119540;28;20232;-65
2021/01/14 07:09:47;;;;;;;8.30;5.57;;;;;;;5.58;57.59;101688.91;6110993;28;20742;-69
2021/01/14 07:13:09;;;;;;;10.47;5.80;;;;;;;5.59;57.71;101701.00;6140595;28;20235;-66
2021/01/14 07:16:33;;;;;;;7.63;6.73;;;;;;;5.59;57.68;101702.72;6120194;28;20251;-68
2021/01/14 07:19:54;;;;;;;8.93;6.97;;;;;;;5.49;57.48;101710.22;6118686;28;20810;-67
2021/01/14 07:23:14;;;;;;;18.43;16.27;;;;;;;5.51;57.57;101718.03;6118868;28;20236;-68
2021/01/14 07:26:39;;;;;;;8.97;7.13;;;;;;;5.44;57.65;101724.72;6120254;28;20243;-67
2021/01/14 07:29:59;;;;;;;9.63;5.67;;;;;;;5.55;57.61;101725.03;6120797;28;20235;-67
2021/01/14 07:33:27;;;;;;;7.07;6.37;;;;;;;5.64;57.26;101730.44;6118314;28;20558;-67
2021/01/14 07:36:48;;;;;;;7.33;5.50;;;;;;;5.55;57.49;101740.53;6111801;28;20710;-68
2021/01/14 07:40:10;;;;;;;6.43;5.23;;;;;;;5.45;58.12;101743.72;6116777;28;20243;-70
2021/01/14 07:43:32;;;;;;;6.23;5.27;;;;;;;5.57;58.02;101759.53;6112617;28;20236;-69
2021/01/14 07:46:52;;;;;;;7.93;6.67;;;;;;;5.57;57.64;101762.09;6105039;28;20231;-69
2021/01/14 07:50:22;;;;;;;7.47;5.93;;;;;;;5.48;57.53;101767.03;6117513;28;20619;-73
2021/01/14 07:53:45;;;;;;;6.13;5.53;;;;;;;5.52;57.72;101767.16;6115237;28;20523;-65
2021/01/14 07:57:07;;;;;;;7.03;5.33;;;;;;;5.46;57.65;101768.69;6119474;28;20236;-66
2021/01/14 08:00:28;;;;;;;7.30;6.43;;;;;;;5.58;57.65;101771.59;6117576;28;20283;-67
2021/01/14 08:03:49;;;;;;;7.03;5.73;;;;;;;5.65;57.09;101773.50;6116612;28;20554;-68
2021/01/14 08:07:21;;;;;;;8.67;5.17;;;;;;;5.63;57.13;101785.53;6116364;28;20240;-69
2021/01/14 08:10:42;;;;;;;7.47;5.70;;;;;;;5.72;57.03;101785.78;6116588;28;20236;-69
2021/01/14 08:14:11;;;;;;;9.90;5.37;;;;;;;5.77;57.42;101782.44;6125480;28;20634;-68
2021/01/14 08:17:32;;;;;;;6.70;5.47;;;;;;;5.71;57.06;101791.75;6115026;28;20285;-73
2021/01/14 08:21:28;;;;;;;9.27;6.37;;;;;;;5.76;57.29;101799.66;6114643;28;20236;-69
2021/01/14 08:24:51;;;;;;;6.17;4.80;;;;;;;5.77;57.31;101814.31;6119935;28;20228;-68
2021/01/14 08:28:15;;;;;;;8.83;5.40;;;;;;;5.73;57.18;101809.91;6115504;28;20334;-74
2021/01/14 08:31:36;;;;;;;8.37;6.00;;;;;;;5.75;57.23;101820.28;6109813;28;20235;-66
2021/01/14 08:34:57;;;;;;;10.17;5.10;;;;;;;5.69;57.46;101821.88;6118065;28;24786;-66
2021/01/14 08:38:19;;;;;;;8.47;5.63;;;;;;;5.75;57.36;101828.03;6121161;28;20240;-65
2021/01/14 08:41:42;;;;;;;9.33;6.73;;;;;;;5.78;57.47;101833.28;6116599;28;20240;-66
2021/01/14 08:45:09;;;;;;;8.83;6.03;;;;;;;5.84;56.95;101828.31;6116775;28;20232;-66
2021/01/14 08:48:30;;;;;;;9.53;6.20;;;;;;;5.89;57.33;101844.78;6118903;28;20228;-66
2021/01/14 08:52:03;;;;;;;13.53;8.17;;;;;;;6.01;57.31;101846.84;6141503;28;20232;-64
2021/01/14 08:55:24;;;;;;;9.27;6.13;;;;;;;5.92;56.74;101847.47;6116260;28;20629;-66
2021/01/14 08:58:47;;;;;;;6.53;5.90;;;;;;;5.77;57.04;101845.34;6113589;28;20239;-66
2021/01/14 09:02:07;;;;;;;7.47;5.17;;;;;;;5.81;60.40;101854.06;6113587;28;20264;-68
2021/01/14 09:05:28;;;;;;;9.73;6.83;;;;;;;6.35;64.94;101861.53;6111675;28;20236;-68
2021/01/14 09:08:53;;;;;;;14.00;11.53;;;;;;;6.30;58.32;101865.69;6107805;28;20510;-69
2021/01/14 09:12:13;;;;;;;13.57;10.03;;;;;;;6.22;57.14;101856.88;6114705;28;20228;-69
2021/01/14 09:15:35;;;;;;;8.00;6.70;;;;;;;6.24;57.29;101868.13;6116484;28;20673;-70
2021/01/14 09:19:11;;;;;;;7.00;5.10;;;;;;;6.21;57.17;101881.00;6105921;28;20243;-73
2021/01/14 09:22:32;;;;;;;10.60;6.17;;;;;;;6.17;57.00;101871.44;6123615;28;20278;-72
2021/01/14 09:25:54;;;;;;;7.77;5.43;;;;;;;6.18;57.08;101880.91;6116414;28;20239;-68
2021/01/14 09:29:15;;;;;;;7.33;5.87;;;;;;;6.06;56.83;101884.94;6113763;28;20235;-71
2021/01/14 09:32:37;;;;;;;7.10;5.47;;;;;;;6.06;56.84;101892.69;6113530;28;20227;-68
2021/01/14 09:36:09;;;;;;;10.37;6.00;;;;;;;6.07;57.06;101899.63;6113942;28;20246;-69
2021/01/14 09:39:30;;;;;;;7.87;6.20;;;;;;;6.11;56.95;101898.88;6111650;28;20228;-68
2021/01/14 09:42:52;;;;;;;9.53;6.37;;;;;;;6.02;57.15;101908.97;6106520;28;20666;-67
2021/01/14 09:46:13;;;;;;;7.33;5.93;;;;;;;6.04;57.15;101906.41;6117895;28;20659;-65
2021/01/14 09:49:34;;;;;;;6.60;5.97;;;;;;;5.98;57.03;101911.44;6120269;28;20235;-65
2021/01/14 09:52:56;;;;;;;8.70;5.97;;;;;;;6.01;56.92;101912.41;6109840;28;20266;-72
2021/01/14 09:56:28;;;;;;;8.27;5.70;;;;;;;6.09;57.06;101913.47;6119365;28;20240;-69
2021/01/14 09:59:52;;;;;;;7.67;5.63;;;;;;;6.15;56.83;101915.34;6110091;28;20231;-68
2021/01/14 10:03:16;;;;;;;6.17;5.10;;;;;;;6.16;57.11;101923.97;6118640;28;20240;-67
2021/01/14 10:06:42;;;;;;;7.73;6.17;;;;;;;6.14;56.92;101928.22;6110274;28;20236;-69
2021/01/14 10:10:05;;;;;;;6.40;5.07;;;;;;;6.21;56.78;101927.56;6117879;28;20227;-69
2021/01/14 10:13:26;;;;;;;4.73;4.33;;;;;;;6.19;56.61;101932.69;6112865;28;20232;-69
2021/01/14 10:16:47;;;;;;;9.17;6.73;;;;;;;6.06;57.13;101931.47;6105191;28;20232;-71
2021/01/14 10:20:09;;;;;;;8.50;6.03;;;;;;;5.93;57.58;101931.94;6108766;28;20232;-68
2021/01/14 10:23:32;;;;;;;9.33;6.27;;;;;;;5.80;57.84;101943.66;6108514;28;20435;-67
2021/01/14 10:26:53;;;;;;;10.00;6.87;;;;;;;5.83;58.14;101940.28;6143014;28;20232;-68
2021/01/14 10:30:20;;;;;;;10.40;5.77;;;;;;;5.96;57.81;101949.31;6116142;28;20259;-68
2021/01/14 10:33:54;;;;;;;6.20;5.53;;;;;;;6.01;59.05;101951.19;6115325;28;20232;-68
2021/01/14 10:37:23;;;;;;;9.73;6.33;;;;;;;5.77;58.31;101947.88;6106677;28;20330;-68
2021/01/14 10:40:46;;;;;;;8.77;6.40;;;;;;;5.92;58.06;101958.66;6114211;28;20231;-69
2021/01/14 10:44:08;;;;;;;9.67;7.53;;;;;;;5.66;57.97;101961.38;6129354;28;20252;-68
2021/01/14 10:47:29;;;;;;;7.67;6.23;;;;;;;5.76;58.29;101959.03;6123636;28;20243;-69
2021/01/14 10:50:52;;;;;;;7.77;5.50;;;;;;;5.66;58.22;101971.69;6133533;28;20613;-67
2021/01/14 10:54:20;;;;;;;9.20;6.23;;;;;;;5.87;57.95;101967.97;6118408;28;20227;-70
2021/01/14 10:57:54;;;;;;;9.00;6.37;;;;;;;5.99;57.68;101965.78;6115666;28;20288;-67
2021/01/14 11:01:15;;;;;;;8.37;6.00;;;;;;;5.88;57.80;101969.75;6120377;28;20251;-66
2021/01/14 11:04:36;;;;;;;8.00;6.03;;;;;;;5.95;57.76;101971.69;6132533;28;20227;-67
2021/01/14 11:08:07;;;;;;;7.87;6.43;;;;;;;5.86;57.81;101969.69;6118049;28;20236;-67
2021/01/14 11:11:28;;;;;;;8.60;5.77;;;;;;;5.90;57.74;101973.25;6113839;28;20227;-68
2021/01/14 11:14:51;;;;;;;9.30;6.33;;;;;;;5.85;57.87;101978.25;6114999;28;20232;-67
2021/01/14 11:18:12;;;;;;;7.80;5.27;;;;;;;5.92;57.69;101979.34;6118870;28;20236;-69
2021/01/14 11:21:34;;;;;;;7.93;6.50;;;;;;;5.95;57.59;101979.44;6122305;28;20239;-73
2021/01/14 11:24:55;;;;;;;7.63;6.30;;;;;;;5.85;58.23;101972.22;6121288;28;20236;-71
2021/01/14 11:28:16;;;;;;;10.10;6.93;;;;;;;6.00;58.14;101969.25;6123115;28;20614;-68
2021/01/14 11:31:37;;;;;;;7.43;5.43;;;;;;;5.88;57.95;101974.91;6114178;28;20493;-66
2021/01/14 11:34:58;;;;;;;7.57;6.00;;;;;;;5.91;58.46;101978.47;6117231;28;20236;-70
2021/01/14 11:38:20;;;;;;;6.73;5.33;;;;;;;5.84;58.99;101975.66;6118162;28;20228;-69
2021/01/14 11:41:40;;;;;;;6.73;6.03;;;;;;;5.70;58.73;101983.88;6137069;28;20231;-70
2021/01/14 11:45:01;;;;;;;6.80;5.57;;;;;;;5.73;58.74;101978.78;6141998;28;20239;-75
2021/01/14 11:48:22;;;;;;;6.57;5.97;;;;;;;5.63;58.80;101976.75;6116480;28;20243;-76
2021/01/14 11:51:50;;;;;;;7.00;5.80;;;;;;;5.63;59.17;101981.06;6119622;28;20256;-78
2021/01/14 11:55:11;;;;;;;7.87;5.77;;;;;;;5.76;58.81;101979.69;6122371;28;20239;-74
2021/01/14 11:58:32;;;;;;;9.67;6.17;;;;;;;5.75;58.76;101970.22;6141269;28;20260;-74
2021/01/14 12:01:56;;;;;;;9.93;6.43;;;;;;;5.79;58.45;101977.22;6115267;28;20232;-74
2021/01/14 12:05:18;;;;;;;9.13;5.77;;;;;;;5.70;58.40;101978.72;6123965;28;20259;-74
2021/01/14 12:08:38;;;;;;;9.03;6.40;;;;;;;5.63;58.98;101983.66;6120699;28;20236;-66
2021/01/14 12:11:58;;;;;;;9.17;7.03;;;;;;;5.74;58.36;101979.69;6104179;28;20327;-68
2021/01/14 12:15:19;;;;;;;7.00;5.87;;;;;;;5.81;58.36;101968.66;6112517;28;20228;-68
2021/01/14 12:18:39;;;;;;;6.73;5.77;;;;;;;6.02;57.81;101981.38;6112738;28;20239;-69
2021/01/14 12:22:02;;;;;;;10.03;7.90;;;;;;;6.00;58.05;101975.28;6113431;28;20321;-69
2021/01/14 12:25:22;;;;;;;27.33;24.33;;;;;;;5.87;58.06;101975.72;6113939;28;20251;-70
2021/01/14 12:28:43;;;;;;;8.70;7.47;;;;;;;5.69;58.72;101982.13;6117362;28;20239;-69
2021/01/14 12:32:04;;;;;;;7.40;6.37;;;;;;;5.69;58.10;101978.66;6113728;28;20232;-72
2021/01/14 12:35:25;;;;;;;6.37;5.73;;;;;;;5.68;58.79;101984.66;6125039;28;20323;-69
2021/01/14 12:38:46;;;;;;;8.90;6.33;;;;;;;5.84;58.20;101973.06;6115997;28;20895;-68
2021/01/14 12:42:09;;;;;;;8.23;6.67;;;;;;;5.94;57.72;101980.25;6142449;28;20238;-71
2021/01/14 12:45:30;;;;;;;6.93;5.20;;;;;;;5.94;57.78;101977.66;6137631;28;20246;-70
2021/01/14 12:48:50;;;;;;;8.13;6.00;;;;;;;6.04;57.72;101984.00;6115942;28;20235;-71
2021/01/14 12:52:11;;;;;;;12.97;7.50;;;;;;;5.90;58.09;101991.34;6117661;28;20231;-69
2021/01/14 12:55:32;;;;;;;9.07;6.70;;;;;;;5.74;58.11;101974.50;6124632;28;20334;-72
2021/01/14 12:58:53;;;;;;;11.20;7.50;;;;;;;5.46;59.13;101983.13;6144347;28;20235;-71
2021/01/14 13:02:14;;;;;;;11.97;9.20;;;;;;;5.64;58.87;101987.97;6116824;28;20681;-68
2021/01/14 13:05:34;;;;;;;8.07;7.03;;;;;;;5.62;58.72;101985.38;6123270;28;20326;-66
2021/01/14 13:08:55;;;;;;;7.70;5.73;;;;;;;5.79;58.12;101977.22;6122791;28;20252;-68
2021/01/14 13:12:17;;;;;;;9.57;7.83;;;;;;;5.75;58.40;101981.41;6113038;28;20563;-69
2021/01/14 13:15:37;;;;;;;6.70;6.00;;;;;;;5.76;58.40;101992.63;6113175;28;20232;-69
2021/01/14 13:18:58;;;;;;;8.13;6.00;;;;;;;5.82;57.76;101987.66;6114116;28;20235;-66
2021/01/14 13:22:18;;;;;;;10.30;6.97;;;;;;;5.83;57.81;101989.41;6118128;28;20551;-67
2021/01/14 13:25:40;;;;;;;7.90;6.77;;;;;;;5.78;58.40;101998.72;6123437;28;20232;-67
2021/01/14 13:29:02;;;;;;;9.27;6.67;;;;;;;5.79;58.43;101996.19;6121639;28;20232;-67
2021/01/14 13:32:22;;;;;;;21.63;19.40;;;;;;;5.84;57.93;101993.75;6116624;28;20235;-67
2021/01/14 13:35:43;;;;;;;8.77;7.97;;;;;;;5.79;58.37;102003.94;6117021;28;20602;-65
2021/01/14 13:39:05;;;;;;;8.97;6.77;;;;;;;5.73;58.45;101998.59;6130829;28;20235;-68
2021/01/14 13:42:25;;;;;;;7.87;6.50;;;;;;;5.66;58.63;101997.56;6126786;28;20288;-66
2021/01/14 13:45:46;;;;;;;7.17;6.33;;;;;;;5.64;58.13;101995.72;6112905;28;20235;-70
2021/01/14 13:49:08;;;;;;;8.70;7.63;;;;;;;5.71;58.43;102001.13;6120569;28;20536;-67
2021/01/14 13:52:28;;;;;;;6.97;6.37;;;;;;;5.89;57.74;102007.66;6114943;28;20224;-68
2021/01/14 13:55:49;;;;;;;8.10;7.23;;;;;;;5.85;58.56;102005.84;6110218;28;20235;-72
2021/01/14 13:59:10;;;;;;;9.03;6.60;;;;;;;5.86;58.15;102012.78;6113199;28;20236;-65
2021/01/14 14:02:32;;;;;;;7.80;6.57;;;;;;;5.96;57.81;102014.81;6112185;28;20243;-71
2021/01/14 14:05:52;;;;;;;7.93;6.77;;;;;;;5.95;57.65;102022.50;6119494;28;20231;-69
2021/01/14 14:09:15;;;;;;;7.30;6.50;;;;;;;5.98;57.57;102022.63;6125551;28;20235;-68
2021/01/14 14:12:35;;;;;;;8.07;7.17;;;;;;;5.85;58.05;102021.34;6115106;28;20251;-67
2021/01/14 14:15:55;;;;;;;8.50;6.87;;;;;;;5.76;57.73;102033.97;6120257;28;20231;-68
2021/01/14 14:19:17;;;;;;;8.23;6.37;;;;;;;5.93;58.05;102035.38;6126770;28;20267;-69
2021/01/14 14:22:38;;;;;;;6.50;5.77;;;;;;;6.03;57.76;102042.63;6120367;28;20228;-68
2021/01/14 14:25:59;;;;;;;7.07;6.37;;;;;;;5.95;57.88;102044.06;6122700;28;20236;-68
2021/01/14 14:29:19;;;;;;;9.87;8.27;;;;;;;5.99;57.79;102043.38;6123297;28;20492;-70
2021/01/14 14:32:43;;;;;;;8.87;7.80;;;;;;;6.05;57.51;102042.66;6118818;28;20236;-69
2021/01/14 14:36:06;;;;;;;8.27;7.50;;;;;;;5.94;58.10;102050.06;6121643;28;20231;-70
2021/01/14 14:39:27;;;;;;;11.83;7.70;;;;;;;5.92;57.74;102049.16;6124023;28;20795;-70
2021/01/14 14:42:47;;;;;;;8.23;6.60;;;;;;;5.89;58.12;102046.44;6122240;28;20232;-70
2021/01/14 14:46:11;;;;;;;8.60;7.30;;;;;;;5.78;58.37;102047.84;6118005;28;20232;-70
2021/01/14 14:49:32;;;;;;;10.07;7.10;;;;;;;5.72;58.64;102049.41;6116742;28;20327;-70
2021/01/14 14:52:53;;;;;;;9.57;7.43;;;;;;;5.72;58.78;102057.19;6116274;28;20227;-70
2021/01/14 14:56:15;;;;;;;7.80;7.00;;;;;;;5.84;58.16;102056.66;6116027;28;20236;-70
2021/01/14 14:59:35;;;;;;;8.10;7.30;;;;;;;5.58;58.85;102061.03;6121636;28;20994;-70
2021/01/14 15:02:56;;;;;;;6.53;4.83;;;;;;;6.17;71.24;102068.88;6115019;28;20235;-71
2021/01/14 15:06:17;;;;;;;8.97;8.07;;;;;;;6.07;59.36;102067.72;6115839;28;20228;-69
2021/01/14 15:09:38;;;;;;;8.97;6.23;;;;;;;5.90;59.01;102074.06;6119283;28;20236;-70
2021/01/14 15:12:59;;;;;;;9.43;7.13;;;;;;;6.01;58.35;102088.25;6114529;28;20251;-69
2021/01/14 15:16:19;;;;;;;10.00;7.50;;;;;;;6.05;58.09;102081.47;6121392;28;20224;-68
2021/01/14 15:19:40;;;;;;;7.93;7.07;;;;;;;5.96;58.27;102087.22;6128460;28;20239;-69
2021/01/14 15:23:01;;;;;;;8.17;7.10;;;;;;;6.00;57.92;102083.88;6119551;28;20617;-70
2021/01/14 15:26:24;;;;;;;12.20;8.07;;;;;;;5.92;58.03;102090.50;6105684;28;20513;-68
2021/01/14 15:29:45;;;;;;;8.33;6.30;;;;;;;5.92;58.44;102093.09;6123450;28;20228;-69
2021/01/14 15:33:06;;;;;;;12.77;8.57;;;;;;;5.92;57.88;102091.38;6116891;28;20751;-70
2021/01/14 15:36:33;;;;;;;10.23;7.27;;;;;;;5.89;58.01;102093.00;6121385;28;20227;-70
2021/01/14 15:39:53;;;;;;;8.23;7.03;;;;;;;5.99;58.07;102095.09;6109936;28;20232;-69
2021/01/14 15:43:14;;;;;;;8.73;7.87;;;;;;;5.98;58.13;102095.91;6118949;28;20281;-69
2021/01/14 15:46:35;;;;;;;8.33;6.27;;;;;;;5.96;58.31;102096.69;6120635;28;20236;-74
2021/01/14 15:49:56;;;;;;;12.00;9.37;;;;;;;6.07;58.11;102103.06;6133961;28;20277;-69
2021/01/14 15:53:16;;;;;;;39.30;28.23;;;;;;;6.06;57.97;102109.06;6121353;28;20228;-69